Terminal Aerodrome Forecast
Issued by NWS Austin/San Antonio, TX

Home | Current Version | Previous Version | Text Only | Print | Product List | Glossary On
Versions: 1 2 3 4 5 6 7 8 9 10 11 12 13 14 15
000
FTUS44 KEWX 032340
TAFSAT
TAF
KSAT 032340Z 0400/0506 13011KT P6SM FEW070 BKN120 BKN250
     FM040100 15011KT P6SM SCT120 SCT250
     FM040800 16005KT P6SM BKN015
      TEMPO 0410/0414 BKN009
     FM041500 14010KT P6SM SCT020 BKN050
     FM042100 15013KT P6SM SCT060 SCT100=

USA.gov is the U.S. government's official web portal to all federal, state and local government web resources and services.